createdAt,value
2022-07-27T00:04:54.550Z,25.29
2022-07-27T00:09:56.963Z,25.47
2022-07-27T00:14:59.501Z,25.62
2022-07-27T00:20:02.359Z,25.62
2022-07-27T00:25:05.184Z,25.72
2022-07-27T00:30:08.042Z,25.71
2022-07-27T00:35:11.399Z,25.65
2022-07-27T00:40:13.993Z,25.73
2022-07-27T00:45:16.723Z,25.64
2022-07-27T00:50:19.131Z,25.31
2022-07-27T00:55:22.007Z,25.38
2022-07-27T01:00:24.582Z,24.55
2022-07-27T01:05:35.945Z,24.03
2022-07-27T01:10:41.633Z,24.20
2022-07-27T01:15:44.452Z,24.74
2022-07-27T01:20:46.859Z,24.95
2022-07-27T01:25:49.513Z,24.44
2022-07-27T01:30:52.063Z,24.19
2022-07-27T01:35:56.932Z,24.22
2022-07-27T01:40:59.425Z,24.44
2022-07-27T01:46:02.325Z,23.98
2022-07-27T01:51:04.891Z,23.68
2022-07-27T01:56:13.220Z,23.68
2022-07-27T02:01:15.899Z,23.55
2022-07-27T02:06:18.381Z,23.86
2022-07-27T02:11:39.676Z,24.27
2022-07-27T02:16:42.994Z,24.61
2022-07-27T02:21:46.066Z,24.70
2022-07-27T02:26:49.449Z,24.72
2022-07-27T02:31:52.056Z,24.52
2022-07-27T02:36:54.529Z,24.47
2022-07-27T02:41:56.936Z,23.93
2022-07-27T02:46:59.479Z,23.87
2022-07-27T02:52:01.993Z,24.31
2022-07-27T02:57:05.122Z,24.31
2022-07-27T03:02:07.606Z,24.10
2022-07-27T03:07:10.127Z,23.35
2022-07-27T03:12:12.555Z,22.78
2022-07-27T03:17:15.892Z,21.94
2022-07-27T03:22:18.382Z,21.81
2022-07-27T03:27:20.995Z,22.27
2022-07-27T03:32:23.418Z,22.94
2022-07-27T03:37:25.859Z,22.50
2022-07-27T03:42:28.284Z,21.70
2022-07-27T03:47:30.761Z,22.32
2022-07-27T03:52:33.271Z,23.08
2022-07-27T03:57:36.071Z,23.49
2022-07-27T04:02:39.226Z,21.99
2022-07-27T04:07:41.869Z,22.40
2022-07-27T04:12:44.312Z,23.18
2022-07-27T04:17:56.076Z,23.76
2022-07-27T04:22:59.712Z,24.11
2022-07-27T04:28:02.276Z,24.26
2022-07-27T04:33:05.269Z,24.27
2022-07-27T04:38:07.835Z,24.30
2022-07-27T04:43:10.288Z,24.50
2022-07-27T04:48:12.887Z,24.59
2022-07-27T04:53:16.405Z,24.44
2022-07-27T04:58:19.293Z,24.51
2022-07-27T05:03:21.747Z,24.53
2022-07-27T05:08:24.383Z,24.61
2022-07-27T05:13:26.817Z,24.64
2022-07-27T05:18:29.248Z,24.75
2022-07-27T05:23:32.841Z,24.76
2022-07-27T05:28:35.311Z,24.73
2022-07-27T05:33:37.955Z,24.67
2022-07-27T05:38:40.915Z,24.66
2022-07-27T05:43:43.385Z,24.84
2022-07-27T05:48:46.496Z,24.86
2022-07-27T05:53:49.066Z,24.80
2022-07-27T05:58:51.638Z,24.93
2022-07-27T06:03:54.172Z,24.99
2022-07-27T06:08:56.643Z,24.89
2022-07-27T06:13:59.193Z,24.88
2022-07-27T06:19:01.825Z,24.98
2022-07-27T06:24:04.435Z,25.10
2022-07-27T06:29:10.509Z,25.21
2022-07-27T06:34:13.537Z,25.21
2022-07-27T06:39:17.429Z,25.28
2022-07-27T06:44:19.893Z,25.34
2022-07-27T06:49:22.612Z,25.46
2022-07-27T06:54:25.141Z,25.50
2022-07-27T06:59:27.592Z,25.62
2022-07-27T07:04:46.161Z,25.72
2022-07-27T07:09:48.585Z,25.79
2022-07-27T07:14:51.024Z,25.83
2022-07-27T07:19:53.446Z,26.06
2022-07-27T07:25:00.706Z,26.15
2022-07-27T07:30:05.657Z,26.20
2022-07-27T07:35:09.258Z,26.16
2022-07-27T07:40:41.232Z,25.97
2022-07-27T07:45:38.933Z,26.04
2022-07-27T07:50:53.957Z,26.12
2022-07-27T07:55:56.920Z,26.11
2022-07-27T08:00:59.492Z,26.24
2022-07-27T08:06:02.069Z,26.25
2022-07-27T08:11:05.560Z,26.21
2022-07-27T08:16:08.140Z,26.33
2022-07-27T08:21:10.663Z,26.44
2022-07-27T08:26:13.089Z,26.59
2022-07-27T08:31:18.886Z,26.87
2022-07-27T08:36:26.889Z,27.32
2022-07-27T08:41:30.845Z,27.20
2022-07-27T08:46:35.241Z,27.34
2022-07-27T08:51:37.718Z,27.70
2022-07-27T08:56:40.206Z,28.29
2022-07-27T09:01:42.995Z,28.67
2022-07-27T09:06:53.152Z,28.77
2022-07-27T09:12:04.322Z,28.53
2022-07-27T09:17:53.222Z,28.76
2022-07-27T09:22:52.971Z,28.94
2022-07-27T09:27:58.175Z,28.45
2022-07-27T09:33:05.575Z,28.51
2022-07-27T09:38:24.359Z,28.85
2022-07-27T09:44:27.695Z,28.87
2022-07-27T09:48:52.316Z,28.55
2022-07-27T09:53:56.887Z,28.55
2022-07-27T09:59:01.577Z,28.66
2022-07-27T10:04:08.347Z,29.25
2022-07-27T10:09:10.867Z,30.70
2022-07-27T10:14:13.902Z,32.33
2022-07-27T10:19:23.454Z,32.67
2022-07-27T10:24:34.932Z,33.11
2022-07-27T10:29:39.444Z,32.21
2022-07-27T10:34:44.102Z,31.39
2022-07-27T10:39:51.752Z,32.37
2022-07-27T10:45:02.288Z,33.55
2022-07-27T10:50:17.046Z,31.09
2022-07-27T10:55:31.664Z,30.91
2022-07-27T11:00:55.073Z,29.98
2022-07-27T11:11:34.459Z,31.70
2022-07-27T11:16:53.962Z,31.76
2022-07-27T11:21:58.036Z,31.39
2022-07-27T11:27:00.581Z,29.90
2022-07-27T11:32:19.956Z,29.29
2022-07-27T11:37:25.473Z,30.01
2022-07-27T11:42:38.413Z,29.84
2022-07-27T11:47:41.757Z,29.39
2022-07-27T11:52:44.213Z,30.31
2022-07-27T11:57:46.660Z,29.75
2022-07-27T12:02:52.644Z,29.04
2022-07-27T12:07:55.261Z,28.47
2022-07-27T12:12:57.736Z,29.49
2022-07-27T12:18:00.475Z,31.06
2022-07-27T12:23:09.903Z,31.75
2022-07-27T12:28:15.606Z,32.10
2022-07-27T12:33:27.228Z,30.18
2022-07-27T12:38:50.442Z,29.38
2022-07-27T12:44:12.274Z,29.20
2022-07-27T12:49:17.411Z,28.87
2022-07-27T12:54:20.333Z,28.49
2022-07-27T12:59:23.660Z,31.39
2022-07-27T13:04:26.179Z,33.05
2022-07-27T13:10:02.237Z,34.52
2022-07-27T13:14:51.387Z,34.65
2022-07-27T13:19:54.220Z,34.94
2022-07-27T13:24:56.745Z,31.90
2022-07-27T13:30:02.791Z,30.05
2022-07-27T13:35:07.695Z,30.31
2022-07-27T13:40:10.713Z,30.38
2022-07-27T13:45:13.250Z,30.16
2022-07-27T13:50:19.505Z,29.87
2022-07-27T13:55:27.737Z,31.79
2022-07-27T14:00:30.978Z,31.75
2022-07-27T14:05:33.468Z,32.47
2022-07-27T14:10:42.043Z,31.88
2022-07-27T14:15:55.774Z,31.59
2022-07-27T14:21:07.288Z,29.99
2022-07-27T14:26:10.925Z,29.22
2022-07-27T14:31:13.668Z,29.19
2022-07-27T14:36:16.156Z,28.88
2022-07-27T14:41:18.567Z,29.29
2022-07-27T14:46:21.046Z,29.33
2022-07-27T14:51:23.769Z,30.07
2022-07-27T14:56:26.329Z,29.41
2022-07-27T15:01:28.951Z,30.09
2022-07-27T15:06:38.493Z,29.29
2022-07-27T15:11:42.038Z,29.09
2022-07-27T15:16:45.910Z,28.90
2022-07-27T15:21:48.772Z,29.63
2022-07-27T15:26:51.233Z,29.89
2022-07-27T15:31:53.872Z,29.79
2022-07-27T15:36:57.255Z,29.60
2022-07-27T15:42:00.495Z,29.26
2022-07-27T15:47:03.469Z,29.16
2022-07-27T15:52:06.341Z,29.14
2022-07-27T15:57:10.470Z,28.92
2022-07-27T16:02:13.243Z,28.56
2022-07-27T16:07:16.692Z,28.17
2022-07-27T16:12:19.685Z,28.07
2022-07-27T16:17:22.410Z,27.98
2022-07-27T16:22:25.210Z,27.89
2022-07-27T16:27:28.826Z,27.89
2022-07-27T16:32:32.342Z,27.85
2022-07-27T16:37:34.799Z,27.61
2022-07-27T16:42:38.240Z,27.73
2022-07-27T16:47:40.997Z,27.82
2022-07-27T16:52:43.543Z,27.63
2022-07-27T16:57:46.099Z,27.49
2022-07-27T17:02:48.517Z,27.51
2022-07-27T17:07:52.463Z,27.51
2022-07-27T17:12:57.862Z,27.36
2022-07-27T17:18:01.255Z,27.38
2022-07-27T17:23:04.539Z,27.25
2022-07-27T17:28:07.087Z,27.26
2022-07-27T17:33:09.651Z,27.23
2022-07-27T17:38:13.947Z,27.17
2022-07-27T17:43:16.401Z,27.03
2022-07-27T17:48:20.568Z,27.08
2022-07-27T17:53:23.026Z,27.05
2022-07-27T17:58:30.259Z,26.98
2022-07-27T18:03:33.850Z,27.02
2022-07-27T18:08:36.761Z,27.04
2022-07-27T18:13:40.040Z,26.90
2022-07-27T18:18:45.599Z,26.90
2022-07-27T18:23:48.075Z,26.88
2022-07-27T18:28:52.758Z,26.84
2022-07-27T18:33:56.092Z,26.82
2022-07-27T18:38:58.600Z,26.71
2022-07-27T18:44:01.055Z,26.73
2022-07-27T18:49:03.669Z,26.72
2022-07-27T18:54:06.292Z,26.76
2022-07-27T18:59:08.870Z,26.80
2022-07-27T19:04:11.792Z,26.76
2022-07-27T19:09:18.309Z,26.79
2022-07-27T19:14:23.057Z,26.78
2022-07-27T19:19:25.856Z,26.83
2022-07-27T19:24:30.032Z,26.75
2022-07-27T19:29:33.143Z,26.70
2022-07-27T19:34:36.324Z,26.70
2022-07-27T19:40:02.337Z,26.70
2022-07-27T19:45:01.524Z,26.70
2022-07-27T19:50:05.243Z,26.63
2022-07-27T19:55:08.095Z,26.58
2022-07-27T20:00:13.749Z,26.52
2022-07-27T20:05:16.360Z,26.44
2022-07-27T20:10:18.859Z,26.36
2022-07-27T20:15:22.495Z,26.36
2022-07-27T20:20:25.809Z,26.28
2022-07-27T20:25:28.332Z,26.27
2022-07-27T20:30:31.519Z,26.27
2022-07-27T20:35:37.914Z,26.20
2022-07-27T20:40:40.566Z,26.15
2022-07-27T20:45:43.126Z,26.14
2022-07-27T20:50:45.716Z,26.11
2022-07-27T20:55:48.783Z,26.10
2022-07-27T21:00:51.395Z,26.12
2022-07-27T21:05:53.971Z,26.10
2022-07-27T21:10:56.447Z,26.08
2022-07-27T21:15:58.876Z,26.03
2022-07-27T21:21:01.413Z,26.02
2022-07-27T21:26:04.043Z,26.01
2022-07-27T21:31:06.539Z,25.93
2022-07-27T21:36:09.152Z,25.98
2022-07-27T21:41:11.814Z,26.04
2022-07-27T21:46:14.403Z,25.91
2022-07-27T21:51:21.490Z,25.87
2022-07-27T21:56:24.562Z,25.89
2022-07-27T22:01:27.555Z,25.77
2022-07-27T22:06:30.047Z,25.75
2022-07-27T22:11:32.716Z,25.72
2022-07-27T22:16:35.417Z,25.67
2022-07-27T22:21:38.006Z,25.52
2022-07-27T22:26:40.531Z,25.55
2022-07-27T22:31:43.030Z,25.63
2022-07-27T22:36:47.732Z,25.46
2022-07-27T22:41:50.203Z,25.20
2022-07-27T22:46:52.821Z,25.23
2022-07-27T22:51:55.316Z,25.33
2022-07-27T22:56:57.755Z,25.31
2022-07-27T23:02:00.526Z,25.36
2022-07-27T23:07:03.063Z,25.37
2022-07-27T23:12:05.867Z,25.38
2022-07-27T23:17:08.336Z,25.33
2022-07-27T23:22:11.654Z,25.33
2022-07-27T23:27:14.473Z,25.31
2022-07-27T23:32:16.904Z,24.91
2022-07-27T23:37:19.453Z,24.75
2022-07-27T23:42:21.885Z,24.92
2022-07-27T23:47:24.400Z,25.01
2022-07-27T23:52:26.853Z,25.01
2022-07-27T23:57:29.363Z,24.94
